TimeCDT,TemperatureF,Dew PointF,Humidity,Sea Level PressureIn,VisibilityMPH,Wind Direction,Wind SpeedMPH,Gust SpeedMPH,PrecipitationIn,Events,Conditions,WindDirDegrees,DateUTC
12:52 AM,73.9,66.0,76,29.94,10.0,South,8.1,-,N/A,,Clear,170,2013-07-07 05:52:00
1:52 AM,73.0,66.0,79,29.94,10.0,South,6.9,-,N/A,,Clear,170,2013-07-07 06:52:00
2:52 AM,70.0,66.0,87,29.94,10.0,SE,3.5,-,N/A,,Clear,130,2013-07-07 07:52:00
3:52 AM,70.0,66.0,87,29.94,10.0,Calm,Calm,-,N/A,,Clear,0,2013-07-07 08:52:00
4:52 AM,68.0,64.0,87,29.95,10.0,SE,4.6,-,N/A,,Clear,130,2013-07-07 09:52:00
5:52 AM,66.9,64.0,90,29.96,10.0,SE,3.5,-,N/A,,Clear,130,2013-07-07 10:52:00
6:52 AM,69.1,64.9,87,29.96,10.0,SE,4.6,-,N/A,,Clear,140,2013-07-07 11:52:00
7:52 AM,73.0,66.0,79,29.97,10.0,South,5.8,-,N/A,,Clear,180,2013-07-07 12:52:00
8:52 AM,75.9,66.0,71,29.96,10.0,SSW,6.9,-,N/A,,Clear,200,2013-07-07 13:52:00
9:52 AM,78.1,68.0,71,29.96,10.0,South,4.6,-,N/A,,Partly Cloudy,180,2013-07-07 14:52:00
10:52 AM,82.0,69.1,65,29.96,10.0,SW,3.5,-,N/A,,Clear,230,2013-07-07 15:52:00
11:52 AM,82.9,69.1,63,29.96,10.0,South,5.8,-,N/A,,Scattered Clouds,170,2013-07-07 16:52:00
12:52 PM,84.9,70.0,61,29.95,10.0,South,8.1,-,N/A,,Mostly Cloudy,180,2013-07-07 17:52:00
1:52 PM,86.0,71.1,61,29.94,10.0,South,9.2,-,N/A,,Mostly Cloudy,190,2013-07-07 18:52:00
2:52 PM,87.1,71.1,59,29.94,10.0,South,11.5,-,N/A,,Scattered Clouds,170,2013-07-07 19:52:00
3:52 PM,88.0,71.1,57,29.93,10.0,South,11.5,-,N/A,,Partly Cloudy,180,2013-07-07 20:52:00
4:52 PM,90.0,71.1,54,29.92,10.0,South,12.7,-,N/A,,Scattered Clouds,190,2013-07-07 21:52:00
5:52 PM,88.0,70.0,55,29.91,10.0,South,12.7,-,N/A,,Clear,180,2013-07-07 22:52:00
6:52 PM,86.0,69.1,57,29.90,10.0,South,10.4,-,N/A,,Clear,180,2013-07-07 23:52:00
7:52 PM,84.0,69.1,61,29.91,10.0,South,9.2,-,N/A,,Clear,180,2013-07-08 00:52:00
8:52 PM,80.1,70.0,71,29.91,10.0,South,6.9,-,N/A,,Clear,180,2013-07-08 01:52:00
9:52 PM,79.0,70.0,74,29.94,10.0,South,3.5,-,N/A,,Partly Cloudy,170,2013-07-08 02:52:00
10:52 PM,78.1,71.1,79,29.94,10.0,SSE,3.5,-,N/A,,Mostly Cloudy,160,2013-07-08 03:52:00
11:52 PM,78.1,68.0,71,29.95,10.0,South,4.6,-,N/A,,Scattered Clouds,190,2013-07-08 04:52:00